Time;durP1;ratioP1;P1;durP2;ratioP2;P2;SDS_P1;SDS_P2;PMS_P1;PMS_P2;Temp;Humidity;BMP_temperature;BMP_pressure;BME280_temperature;BME280_humidity;BME280_pressure;Samples;Min_cycle;Max_cycle;Signal;HPM_P1;HPM_P2
2023/11/24 00:01:59;;;;;;;8.13;6.00;;;;;;;9.35;100.00;92743.13;5083211;28;20040;-78
2023/11/24 00:04:27;;;;;;;8.50;6.40;;;;;;;9.39;100.00;92751.22;5070830;28;20582;-78
2023/11/24 00:06:55;;;;;;;10.02;6.75;;;;;;;9.36;100.00;92749.84;5071418;28;20459;-78
2023/11/24 00:09:23;;;;;;;8.77;6.30;;;;;;;9.35;100.00;92745.69;5072255;28;20550;-79
2023/11/24 00:11:52;;;;;;;7.72;6.47;;;;;;;9.31;100.00;92750.47;5070479;28;20490;-79
2023/11/24 00:14:18;;;;;;;9.48;7.07;;;;;;;9.29;100.00;92741.44;5077683;28;20884;-78
2023/11/24 00:16:47;;;;;;;10.02;6.53;;;;;;;9.30;100.00;92740.47;5082550;28;20048;-78
2023/11/24 00:19:15;;;;;;;9.15;7.10;;;;;;;9.29;100.00;92733.75;5074770;28;20052;-78
2023/11/24 00:21:43;;;;;;;8.77;6.68;;;;;;;9.26;100.00;92727.25;5070023;28;20048;-78
2023/11/24 00:24:10;;;;;;;9.77;7.13;;;;;;;9.20;100.00;92720.44;5082484;28;20055;-79
2023/11/24 00:26:37;;;;;;;10.48;7.40;;;;;;;9.07;100.00;92698.28;5070020;28;20876;-78
2023/11/24 00:29:04;;;;;;;9.85;6.90;;;;;;;9.17;100.00;92713.19;5070333;28;20048;-78
2023/11/24 00:31:31;;;;;;;9.30;7.18;;;;;;;9.15;100.00;92710.81;5075783;28;20052;-79
2023/11/24 00:33:58;;;;;;;10.05;6.93;;;;;;;9.13;100.00;92707.69;5083561;28;20052;-79
2023/11/24 00:36:25;;;;;;;9.63;7.22;;;;;;;9.06;100.00;92694.94;5074465;28;20059;-78
2023/11/24 00:38:54;;;;;;;9.82;7.30;;;;;;;9.14;100.00;92701.56;5070134;28;20052;-79
2023/11/24 00:41:22;;;;;;;9.32;7.03;;;;;;;9.05;100.00;92698.50;5072793;28;20094;-79
2023/11/24 00:43:50;;;;;;;10.32;7.55;;;;;;;9.02;100.00;92698.16;5070002;28;20057;-79
2023/11/24 00:46:17;;;;;;;10.65;7.60;;;;;;;8.92;100.00;92694.28;5070018;28;20040;-79
2023/11/24 00:48:44;;;;;;;9.95;7.38;;;;;;;8.93;100.00;92693.28;5074139;28;20114;-79
2023/11/24 00:51:11;;;;;;;11.68;7.60;;;;;;;8.95;100.00;92686.16;5069904;28;20517;-78
2023/11/24 00:53:38;;;;;;;9.07;6.40;;;;;;;8.81;100.00;92680.41;5070069;28;20052;-79
2023/11/24 00:56:08;;;;;;;9.65;7.53;;;;;;;8.79;100.00;92684.16;5077853;28;20548;-79
2023/11/24 00:58:35;;;;;;;9.68;7.72;;;;;;;8.84;100.00;92680.97;5069458;28;20426;-79
2023/11/24 01:01:04;;;;;;;10.23;7.22;;;;;;;8.80;100.00;92672.94;5069780;28;20040;-80
2023/11/24 01:03:32;;;;;;;9.38;7.68;;;;;;;8.66;100.00;92652.56;5070377;28;20572;-80
2023/11/24 01:05:59;;;;;;;9.45;7.68;;;;;;;8.53;100.00;92624.53;5069540;28;20106;-80
2023/11/24 01:08:26;;;;;;;10.38;6.70;;;;;;;8.59;100.00;92620.34;5069735;28;20130;-79
2023/11/24 01:10:56;;;;;;;11.73;7.40;;;;;;;8.73;100.00;92638.91;5069466;28;20889;-78
2023/11/24 01:13:24;;;;;;;10.63;7.30;;;;;;;8.68;100.00;92634.44;5069129;28;20098;-78
2023/11/24 01:15:51;;;;;;;9.80;7.25;;;;;;;8.69;100.00;92631.66;5072093;28;20040;-79
2023/11/24 01:18:19;;;;;;;9.52;7.40;;;;;;;8.68;100.00;92630.13;5070341;28;20048;-78
2023/11/24 01:20:46;;;;;;;9.10;7.28;;;;;;;8.60;100.00;92614.25;5069192;28;20110;-78
2023/11/24 01:23:13;;;;;;;8.98;7.00;;;;;;;8.69;100.00;92618.06;5068596;28;20049;-79
2023/11/24 01:25:41;;;;;;;10.00;7.38;;;;;;;8.66;100.00;92621.06;5070697;28;20047;-78
2023/11/24 01:28:08;;;;;;;10.68;7.72;;;;;;;8.60;100.00;92607.34;5069149;28;20131;-78
2023/11/24 01:30:37;;;;;;;9.70;7.13;;;;;;;8.55;100.00;92596.94;5069144;28;20139;-78
2023/11/24 01:33:04;;;;;;;9.20;7.10;;;;;;;8.53;100.00;92596.38;5072878;28;20174;-77
2023/11/24 01:35:30;;;;;;;10.05;7.13;;;;;;;8.59;100.00;92587.06;5078916;28;20821;-78
2023/11/24 01:37:59;;;;;;;10.27;7.72;;;;;;;8.51;100.00;92575.28;5072952;28;20054;-78
2023/11/24 01:40:26;;;;;;;9.98;6.93;;;;;;;8.45;100.00;92555.66;5074071;28;20056;-79
2023/11/24 01:42:53;;;;;;;10.57;7.32;;;;;;;8.55;100.00;92571.34;5087400;28;20063;-78
2023/11/24 01:45:20;;;;;;;11.60;7.57;;;;;;;8.60;100.00;92581.72;5079160;28;20060;-78
2023/11/24 01:47:48;;;;;;;9.65;7.35;;;;;;;8.60;100.00;92584.28;5068592;28;20517;-78
2023/11/24 01:50:16;;;;;;;10.13;7.47;;;;;;;8.40;100.00;92558.88;5068493;28;20110;-77
2023/11/24 01:52:44;;;;;;;12.13;8.38;;;;;;;8.49;100.00;92565.28;5069813;28;20105;-77
2023/11/24 01:55:12;;;;;;;12.98;7.80;;;;;;;8.52;100.00;92566.66;5086545;28;20052;-78
2023/11/24 01:57:41;;;;;;;10.95;8.10;;;;;;;8.58;100.00;92563.25;5085943;28;20051;-77
2023/11/24 02:00:12;;;;;;;11.98;8.40;;;;;;;8.53;100.00;92556.19;5077298;28;20138;-78
2023/11/24 02:02:39;;;;;;;11.85;8.40;;;;;;;8.58;100.00;92550.44;5068276;28;20082;-77
2023/11/24 02:05:09;;;;;;;13.10;8.13;;;;;;;8.55;100.00;92545.75;5070482;28;20059;-78
2023/11/24 02:07:36;;;;;;;13.30;8.15;;;;;;;8.52;100.00;92538.50;5068166;28;20407;-78
2023/11/24 02:10:04;;;;;;;14.60;8.77;;;;;;;8.55;100.00;92538.06;5070132;28;20521;-78
2023/11/24 02:12:31;;;;;;;11.85;8.15;;;;;;;8.46;100.00;92519.63;5068003;28;20040;-78
2023/11/24 02:14:58;;;;;;;14.15;9.07;;;;;;;8.50;100.00;92528.44;5071647;28;20048;-78
2023/11/24 02:17:25;;;;;;;13.80;8.98;;;;;;;8.48;100.00;92517.63;5068608;28;20044;-78
2023/11/24 02:19:52;;;;;;;12.43;8.45;;;;;;;8.52;100.00;92523.16;5068425;28;20437;-78
2023/11/24 02:22:20;;;;;;;12.88;8.40;;;;;;;8.44;100.00;92516.50;5067566;28;20490;-78
2023/11/24 02:24:49;;;;;;;11.70;7.47;;;;;;;8.48;100.00;92509.19;5068257;28;20141;-78
2023/11/24 02:27:18;;;;;;;10.15;7.78;;;;;;;8.47;100.00;92508.38;5068433;28;20048;-78
2023/11/24 02:29:45;;;;;;;11.40;8.43;;;;;;;8.46;100.00;92495.81;5068510;28;20049;-78
2023/11/24 02:32:13;;;;;;;12.23;8.77;;;;;;;8.40;100.00;92488.00;5068517;28;20808;-77
2023/11/24 02:34:40;;;;;;;10.90;7.93;;;;;;;8.40;100.00;92484.66;5071642;28;20067;-78
2023/11/24 02:37:07;;;;;;;12.20;8.85;;;;;;;8.44;100.00;92480.69;5067839;28;20044;-78
2023/11/24 02:39:34;;;;;;;12.10;8.70;;;;;;;8.41;100.00;92479.31;5068455;28;20056;-79
2023/11/24 02:42:02;;;;;;;12.07;7.93;;;;;;;8.44;100.00;92475.56;5074057;28;20052;-79
2023/11/24 02:44:29;;;;;;;11.02;7.43;;;;;;;8.47;100.00;92470.00;5067603;28;20059;-79
2023/11/24 02:46:56;;;;;;;11.73;7.30;;;;;;;8.40;100.00;92461.63;5072116;28;20049;-80
2023/11/24 02:49:23;;;;;;;11.35;8.13;;;;;;;8.42;100.00;92457.84;5067781;28;20079;-80
2023/11/24 02:51:49;;;;;;;11.13;8.13;;;;;;;8.50;100.00;92454.22;5067656;28;20061;-79
2023/11/24 02:54:16;;;;;;;10.88;7.82;;;;;;;8.40;100.00;92430.91;5070064;28;20917;-79
2023/11/24 02:56:43;;;;;;;10.60;7.55;;;;;;;8.59;100.00;92446.25;5067560;28;20102;-79
2023/11/24 02:59:11;;;;;;;10.88;7.97;;;;;;;8.60;100.00;92440.16;5071789;28;20080;-78
2023/11/24 03:01:38;;;;;;;14.00;8.65;;;;;;;8.70;100.00;92437.84;5067713;28;20071;-78
2023/11/24 03:04:06;;;;;;;13.10;8.30;;;;;;;8.67;100.00;92444.19;5067306;28;20842;-79
2023/11/24 03:06:40;;;;;;;13.45;8.18;;;;;;;8.74;100.00;92446.66;5069019;28;20044;-79
2023/11/24 03:09:09;;;;;;;11.70;8.85;;;;;;;8.73;100.00;92439.97;5067633;28;20071;-79
2023/11/24 03:11:36;;;;;;;9.68;7.70;;;;;;;8.76;100.00;92439.56;5067620;28;20040;-79
2023/11/24 03:14:03;;;;;;;11.20;8.07;;;;;;;8.73;100.00;92441.75;5076216;28;20059;-79
2023/11/24 03:16:32;;;;;;;10.63;8.10;;;;;;;8.74;100.00;92435.66;5084676;28;20071;-80
2023/11/24 03:18:58;;;;;;;11.00;7.90;;;;;;;8.67;100.00;92433.19;5079244;28;20049;-80
2023/11/24 03:21:25;;;;;;;13.75;9.02;;;;;;;8.65;100.00;92423.16;5067129;28;20048;-79
2023/11/24 03:23:52;;;;;;;12.43;9.20;;;;;;;8.64;100.00;92413.13;5067731;28;20056;-79
2023/11/24 03:26:19;;;;;;;11.60;8.73;;;;;;;8.51;100.00;92396.91;5067869;28;20094;-78
2023/11/24 03:28:46;;;;;;;11.88;8.55;;;;;;;8.51;100.00;92394.34;5067919;28;20431;-78
2023/11/24 03:31:13;;;;;;;11.10;7.65;;;;;;;8.50;100.00;92387.66;5067968;28;20048;-79
2023/11/24 03:33:41;;;;;;;10.27;7.63;;;;;;;8.55;100.00;92390.41;5071200;28;20048;-78
2023/11/24 03:36:08;;;;;;;11.52;8.93;;;;;;;8.49;100.00;92388.69;5085154;28;20055;-78
2023/11/24 03:38:35;;;;;;;18.98;8.63;;;;;;;8.51;100.00;92373.88;5085498;28;20044;-79
2023/11/24 03:41:02;;;;;;;9.95;8.27;;;;;;;8.53;100.00;92374.44;5070689;28;20049;-80
2023/11/24 03:43:29;;;;;;;12.80;8.52;;;;;;;8.36;100.00;92330.75;5067600;28;20051;-80
2023/11/24 03:45:57;;;;;;;12.80;8.30;;;;;;;8.51;100.00;92355.97;5068110;28;20056;-81
2023/11/24 03:48:24;;;;;;;14.35;8.77;;;;;;;8.46;100.00;92363.50;5077123;28;20045;-79
2023/11/24 03:50:52;;;;;;;11.38;7.85;;;;;;;8.39;100.00;92350.03;5066701;28;20049;-81
2023/11/24 03:53:19;;;;;;;13.60;9.68;;;;;;;8.28;100.00;92341.28;5065332;28;20550;-81
2023/11/24 03:55:47;;;;;;;11.23;8.60;;;;;;;8.42;100.00;92352.13;5066552;28;20045;-79
2023/11/24 03:58:14;;;;;;;14.10;10.05;;;;;;;8.40;100.00;92354.94;5072072;28;20056;-80
2023/11/24 04:00:47;;;;;;;11.80;9.07;;;;;;;8.40;100.00;92347.25;5082296;28;20506;-79
2023/11/24 04:06:11;;;;;;;15.50;11.52;;;;;;;8.36;100.00;92358.13;5078118;28;20517;-81
2023/11/24 04:08:38;;;;;;;14.73;12.05;;;;;;;8.40;100.00;92346.47;5071770;28;20044;-80
2023/11/24 04:11:05;;;;;;;21.20;15.20;;;;;;;8.40;100.00;92346.47;5087786;28;20420;-80
2023/11/24 04:13:32;;;;;;;20.42;15.30;;;;;;;8.46;100.00;92343.03;5077150;28;20509;-79
2023/11/24 04:15:59;;;;;;;19.33;13.23;;;;;;;8.50;100.00;92348.50;5070981;28;20056;-80
2023/11/24 04:18:26;;;;;;;20.52;13.23;;;;;;;8.45;100.00;92359.38;5070275;28;20052;-81
2023/11/24 04:20:53;;;;;;;20.85;14.90;;;;;;;8.44;100.00;92352.72;5073397;28;20048;-81
2023/11/24 04:23:21;;;;;;;19.77;13.35;;;;;;;8.41;100.00;92353.94;5070133;28;20056;-82
2023/11/24 04:25:48;;;;;;;20.75;14.02;;;;;;;8.42;100.00;92352.91;5070118;28;20053;-82
2023/11/24 04:28:19;;;;;;;15.82;12.30;;;;;;;8.35;100.00;92349.69;5072068;28;20446;-81
2023/11/24 04:30:46;;;;;;;20.02;13.27;;;;;;;8.39;100.00;92360.25;5069962;28;20071;-79
2023/11/24 04:33:13;;;;;;;16.85;13.02;;;;;;;8.35;100.00;92354.00;5080111;28;20059;-80
2023/11/24 04:35:48;;;;;;;17.85;12.13;;;;;;;8.37;100.00;92345.13;5086020;28;20505;-80
2023/11/24 04:38:15;;;;;;;15.73;12.52;;;;;;;8.30;100.00;92354.66;5070903;28;20048;-80
2023/11/24 04:40:44;;;;;;;15.40;12.13;;;;;;;8.36;100.00;92347.88;5069512;28;20479;-79
2023/11/24 04:43:11;;;;;;;16.42;11.75;;;;;;;8.35;100.00;92349.69;5069999;28;20052;-80
2023/11/24 04:45:39;;;;;;;16.75;12.52;;;;;;;8.34;100.00;92329.41;5075916;28;20557;-81
2023/11/24 04:48:06;;;;;;;15.27;12.20;;;;;;;8.33;100.00;92336.31;5083476;28;20091;-79
2023/11/24 04:50:34;;;;;;;18.55;13.48;;;;;;;8.27;100.00;92320.06;5068585;28;20052;-80
2023/11/24 04:53:02;;;;;;;19.30;14.35;;;;;;;8.28;100.00;92328.50;5071564;28;20215;-80
2023/11/24 04:55:29;;;;;;;19.75;13.32;;;;;;;8.25;100.00;92324.59;5072511;28;20055;-80
2023/11/24 04:57:57;;;;;;;22.73;14.98;;;;;;;8.26;100.00;92327.94;5069101;28;20060;-79
2023/11/24 05:00:24;;;;;;;19.92;15.00;;;;;;;8.25;100.00;92334.81;5071252;28;20060;-79
2023/11/24 05:02:51;;;;;;;19.85;13.88;;;;;;;7.99;100.00;92295.81;5068824;28;20139;-80
2023/11/24 05:05:18;;;;;;;17.42;13.82;;;;;;;8.19;100.00;92327.25;5069400;28;20052;-80
2023/11/24 05:07:45;;;;;;;18.38;13.65;;;;;;;8.27;100.00;92342.28;5069463;28;20082;-80
2023/11/24 05:10:12;;;;;;;17.25;13.30;;;;;;;8.23;100.00;92334.28;5070801;28;20422;-79
2023/11/24 05:12:39;;;;;;;17.58;13.52;;;;;;;8.25;100.00;92337.38;5071746;28;20395;-79
2023/11/24 05:15:08;;;;;;;15.55;10.55;;;;;;;8.11;100.00;92307.88;5071471;28;20127;-80
2023/11/24 05:17:35;;;;;;;14.90;10.60;;;;;;;8.25;100.00;92319.47;5079627;28;20044;-81
2023/11/24 05:20:26;;;;;;;14.43;10.35;;;;;;;8.14;100.00;92295.41;5072056;28;20076;-81
2023/11/24 05:22:54;;;;;;;15.95;10.40;;;;;;;8.25;100.00;92311.81;5072851;28;20044;-80
2023/11/24 05:25:22;;;;;;;16.17;11.35;;;;;;;8.28;100.00;92315.69;5072382;28;20057;-82
2023/11/24 05:27:49;;;;;;;15.68;11.57;;;;;;;8.26;100.00;92297.25;5077921;28;20122;-82
2023/11/24 05:30:17;;;;;;;15.18;10.73;;;;;;;8.22;100.00;92285.88;5069068;28;20414;-80
2023/11/24 05:32:44;;;;;;;14.05;10.95;;;;;;;8.25;100.00;92290.56;5072793;28;20102;-81
2023/11/24 05:35:11;;;;;;;15.60;11.77;;;;;;;8.30;100.00;92298.38;5069121;28;20052;-81
2023/11/24 05:37:38;;;;;;;18.52;11.90;;;;;;;8.28;100.00;92290.13;5068863;28;20052;-82
2023/11/24 05:40:07;;;;;;;17.30;11.15;;;;;;;8.24;100.00;92289.00;5068330;28;20135;-81
2023/11/24 05:42:34;;;;;;;14.13;10.80;;;;;;;8.19;100.00;92289.66;5071346;28;20056;-82
2023/11/24 05:45:01;;;;;;;16.67;11.27;;;;;;;8.19;100.00;92284.53;5069724;28;20044;-80
2023/11/24 05:47:30;;;;;;;17.30;11.88;;;;;;;8.19;100.00;92284.53;5068766;28;20055;-80
2023/11/24 05:49:57;;;;;;;16.95;11.55;;;;;;;8.22;100.00;92289.22;5069102;28;20168;-81
2023/11/24 05:52:25;;;;;;;14.18;10.32;;;;;;;8.14;100.00;92262.16;5068838;28;20059;-80
2023/11/24 05:54:53;;;;;;;16.88;10.98;;;;;;;8.26;100.00;92285.25;5072190;28;20060;-80
2023/11/24 05:57:20;;;;;;;14.82;11.00;;;;;;;8.32;100.00;92280.25;5071923;28;20055;-80
2023/11/24 05:59:47;;;;;;;18.73;11.90;;;;;;;8.01;100.00;92242.66;5068072;28;20135;-80
2023/11/24 06:02:13;;;;;;;16.52;11.13;;;;;;;8.37;100.00;92286.25;5071669;28;20055;-80
2023/11/24 06:04:42;;;;;;;16.27;11.15;;;;;;;8.31;100.00;92265.88;5069625;28;20056;-79
2023/11/24 06:07:09;;;;;;;16.67;12.63;;;;;;;8.19;100.00;92255.63;5069391;28;20426;-81
2023/11/24 06:09:36;;;;;;;15.77;11.70;;;;;;;8.34;100.00;92279.00;5074305;28;20044;-80
2023/11/24 06:12:03;;;;;;;17.80;12.20;;;;;;;8.25;100.00;92263.19;5078570;28;20052;-80
2023/11/24 06:14:29;;;;;;;23.10;13.75;;;;;;;8.34;100.00;92273.13;5073665;28;20521;-79
2023/11/24 06:16:56;;;;;;;22.23;14.07;;;;;;;8.42;100.00;92273.59;5075331;28;20044;-79
2023/11/24 06:19:24;;;;;;;17.92;12.20;;;;;;;8.43;100.00;92267.47;5069235;28;20071;-82
2023/11/24 06:21:52;;;;;;;17.98;12.57;;;;;;;8.32;100.00;92252.09;5070381;28;20127;-80
2023/11/24 06:24:19;;;;;;;18.48;12.85;;;;;;;8.16;100.00;92232.03;5070469;28;20055;-80
2023/11/24 06:26:46;;;;;;;17.33;11.73;;;;;;;8.44;100.00;92263.13;5071164;28;20101;-80
2023/11/24 06:29:14;;;;;;;21.00;13.32;;;;;;;8.39;100.00;92245.88;5068178;28;20047;-80
2023/11/24 06:31:41;;;;;;;16.90;12.18;;;;;;;8.51;100.00;92263.81;5068901;28;20052;-80
2023/11/24 06:34:09;;;;;;;20.83;13.15;;;;;;;8.40;100.00;92250.00;5076644;28;20044;-80
2023/11/24 06:36:36;;;;;;;18.85;13.20;;;;;;;8.49;100.00;92259.91;5069863;28;20098;-79
2023/11/24 06:39:10;;;;;;;20.23;12.98;;;;;;;8.51;100.00;92263.03;5067989;28;20145;-80
2023/11/24 06:41:37;;;;;;;22.65;12.55;;;;;;;8.50;100.00;92252.03;5083188;28;20044;-80
2023/11/24 06:44:04;;;;;;;19.70;13.27;;;;;;;8.54;100.00;92253.19;5080608;28;20068;-80
2023/11/24 06:46:31;;;;;;;19.83;12.07;;;;;;;8.55;100.00;92261.63;5075693;28;20053;-80
2023/11/24 06:48:59;;;;;;;18.17;12.73;;;;;;;8.64;100.00;92257.75;5069500;28;20082;-80
2023/11/24 06:51:26;;;;;;;18.67;12.98;;;;;;;8.66;100.00;92252.41;5067367;28;20052;-80
2023/11/24 06:53:54;;;;;;;19.77;13.20;;;;;;;8.79;100.00;92241.94;5067977;28;20056;-81
2023/11/24 06:56:22;;;;;;;20.83;14.43;;;;;;;8.76;100.00;92237.28;5067453;28;20056;-80
2023/11/24 06:58:54;;;;;;;20.05;13.35;;;;;;;8.68;100.00;92212.00;5085179;28;20124;-80
2023/11/24 07:01:30;;;;;;;21.55;12.45;;;;;;;8.91;100.00;92236.84;5085334;28;20093;-81
2023/11/24 07:03:58;;;;;;;19.80;11.82;;;;;;;8.84;100.00;92223.34;5078947;28;20049;-80
2023/11/24 07:06:25;;;;;;;20.13;11.93;;;;;;;8.91;100.00;92229.16;5066915;28;20056;-80
2023/11/24 07:08:52;;;;;;;18.02;13.40;;;;;;;8.97;100.00;92217.22;5067664;28;20053;-80
2023/11/24 07:11:19;;;;;;;23.73;16.33;;;;;;;9.02;100.00;92216.56;5067101;28;20072;-80
2023/11/24 07:13:48;;;;;;;16.90;11.65;;;;;;;8.96;100.00;92210.53;5068641;28;20091;-79
2023/11/24 07:16:15;;;;;;;21.15;14.02;;;;;;;9.03;100.00;92203.50;5067979;28;20048;-79
2023/11/24 07:18:42;;;;;;;16.98;11.15;;;;;;;9.06;100.00;92208.19;5066973;28;20058;-80
2023/11/24 07:21:08;;;;;;;16.73;11.55;;;;;;;9.05;100.00;92204.09;5067159;28;20514;-80
2023/11/24 07:23:37;;;;;;;19.48;12.57;;;;;;;8.82;100.00;92166.47;5066891;28;20045;-80
2023/11/24 07:26:04;;;;;;;33.30;20.58;;;;;;;9.15;100.00;92202.72;5080801;28;20060;-79
2023/11/24 07:28:31;;;;;;;20.83;13.90;;;;;;;9.23;100.00;92221.06;5066672;28;20059;-79
2023/11/24 07:30:59;;;;;;;30.38;18.15;;;;;;;9.19;100.00;92198.72;5066848;28;20052;-79
2023/11/24 07:33:27;;;;;;;29.67;18.13;;;;;;;9.17;100.00;92201.47;5069057;28;20048;-81
2023/11/24 07:35:54;;;;;;;22.33;13.80;;;;;;;9.30;100.00;92208.16;5067114;28;20410;-78
2023/11/24 07:38:24;;;;;;;17.55;12.95;;;;;;;9.24;100.00;92186.00;5068404;28;20048;-79
2023/11/24 07:40:51;;;;;;;16.23;12.20;;;;;;;9.26;100.00;92188.34;5066444;28;20056;-79
2023/11/24 07:43:17;;;;;;;17.17;12.85;;;;;;;9.33;100.00;92200.03;5071167;28;20078;-79
2023/11/24 07:45:48;;;;;;;17.30;12.60;;;;;;;9.30;100.00;92192.78;5072569;28;20067;-78
2023/11/24 07:48:17;;;;;;;13.75;10.75;;;;;;;9.27;100.00;92185.56;5070724;28;20051;-79
2023/11/24 07:50:45;;;;;;;20.67;12.43;;;;;;;9.34;100.00;92187.97;5070433;28;20094;-79
2023/11/24 07:53:13;;;;;;;17.73;11.48;;;;;;;9.41;100.00;92190.41;5070719;28;20052;-78
2023/11/24 07:55:40;;;;;;;15.35;10.82;;;;;;;9.44;100.00;92195.84;5069658;28;20080;-79
2023/11/24 07:58:07;;;;;;;16.70;11.82;;;;;;;9.34;100.00;92175.16;5082434;28;20493;-78
2023/11/24 08:00:34;;;;;;;15.52;10.88;;;;;;;9.45;100.00;92186.41;5069796;28;20053;-78
2023/11/24 08:03:03;;;;;;;15.63;10.18;;;;;;;9.49;100.00;92178.00;5073102;28;20044;-80
2023/11/24 08:05:31;;;;;;;16.92;10.70;;;;;;;9.51;100.00;92180.34;5069957;28;20094;-79
2023/11/24 08:07:58;;;;;;;17.90;10.55;;;;;;;9.55;100.00;92173.78;5070319;28;20044;-78
2023/11/24 08:10:26;;;;;;;14.32;10.18;;;;;;;9.54;100.00;92164.50;5069886;28;20052;-79
2023/11/24 08:12:53;;;;;;;14.95;9.75;;;;;;;9.58;100.00;92157.16;5078191;28;20051;-79
2023/11/24 08:15:20;;;;;;;15.48;10.45;;;;;;;9.58;100.00;92164.84;5071653;28;20521;-80
2023/11/24 08:17:47;;;;;;;16.85;10.63;;;;;;;9.55;100.00;92160.16;5070206;28;20055;-79
2023/11/24 08:20:14;;;;;;;18.27;11.10;;;;;;;9.58;100.00;92157.16;5071903;28;20599;-79
2023/11/24 08:22:43;;;;;;;18.23;12.85;;;;;;;9.60;100.00;92158.47;5069596;28;20044;-79
2023/11/24 08:25:09;;;;;;;17.52;10.60;;;;;;;9.50;100.00;92142.91;5071930;28;21138;-80
2023/11/24 08:27:36;;;;;;;19.88;11.52;;;;;;;8.98;100.00;92059.22;5072358;28;21315;-80
2023/11/24 08:30:10;;;;;;;17.33;11.38;;;;;;;9.63;100.00;92150.31;5069713;28;20436;-79
2023/11/24 08:32:37;;;;;;;17.30;10.68;;;;;;;9.57;100.00;92142.75;5080124;28;20052;-79
2023/11/24 08:35:05;;;;;;;16.30;11.07;;;;;;;9.61;100.00;92146.44;5072926;28;20410;-78
2023/11/24 08:37:32;;;;;;;20.70;10.57;;;;;;;9.49;100.00;92124.19;5075995;28;20063;-77
2023/11/24 08:40:00;;;;;;;25.85;14.68;;;;;;;9.59;100.00;92121.00;5087684;28;20059;-77
2023/11/24 08:42:26;;;;;;;19.50;12.13;;;;;;;9.66;100.00;92131.13;5084172;28;20055;-79
2023/11/24 08:44:53;;;;;;;21.25;11.40;;;;;;;9.71;100.00;92135.56;5070498;28;20048;-78
2023/11/24 08:47:20;;;;;;;18.42;11.77;;;;;;;9.67;100.00;92137.06;5069539;28;20075;-77
2023/11/24 08:49:47;;;;;;;20.65;13.38;;;;;;;9.70;100.00;92126.31;5071507;28;20049;-79
2023/11/24 08:52:14;;;;;;;20.42;11.55;;;;;;;9.68;100.00;92120.66;5069362;28;20506;-78
2023/11/24 08:54:41;;;;;;;16.77;10.27;;;;;;;9.68;100.00;92118.09;5068286;28;20059;-80
2023/11/24 08:57:09;;;;;;;18.17;12.80;;;;;;;9.65;100.00;92109.06;5069724;28;20426;-78
2023/11/24 08:59:36;;;;;;;22.00;13.38;;;;;;;9.69;100.00;92111.94;5070054;28;20056;-78
2023/11/24 09:02:04;;;;;;;19.13;12.82;;;;;;;9.71;100.00;92097.88;5073755;28;20052;-78
2023/11/24 09:04:32;;;;;;;19.00;12.50;;;;;;;9.76;100.00;92092.06;5078880;28;20115;-77
2023/11/24 09:06:58;;;;;;;17.92;12.02;;;;;;;9.78;100.00;92087.50;5070438;28;20446;-79
2023/11/24 09:09:27;;;;;;;15.77;10.77;;;;;;;9.80;100.00;92088.03;5086060;28;20551;-80
2023/11/24 09:11:54;;;;;;;16.63;11.65;;;;;;;9.79;100.00;92086.47;5073940;28;20054;-78
2023/11/24 09:14:23;;;;;;;16.75;10.15;;;;;;;9.84;100.00;92075.50;5071412;28;20059;-79
2023/11/24 09:16:50;;;;;;;17.80;11.20;;;;;;;9.79;100.00;92065.97;5072703;28;20055;-78
2023/11/24 09:19:17;;;;;;;15.60;9.90;;;;;;;9.64;100.00;92038.28;5072646;28;20133;-80
2023/11/24 09:21:43;;;;;;;13.77;8.85;;;;;;;9.80;100.00;92059.81;5072893;28;20048;-79
2023/11/24 09:24:14;;;;;;;11.90;8.55;;;;;;;9.79;100.00;92058.25;5068888;28;20052;-79
2023/11/24 09:26:43;;;;;;;11.60;8.25;;;;;;;9.78;100.00;92049.03;5068966;28;20060;-79
2023/11/24 09:29:10;;;;;;;10.93;8.43;;;;;;;9.83;100.00;92049.09;5068510;28;20052;-79
2023/11/24 09:31:38;;;;;;;11.50;8.75;;;;;;;9.81;100.00;92038.28;5082475;28;20052;-80
2023/11/24 09:34:05;;;;;;;12.25;8.70;;;;;;;9.83;100.00;92040.63;5082736;28;20048;-79
2023/11/24 09:36:31;;;;;;;11.32;7.95;;;;;;;9.84;100.00;92042.16;5070758;28;20053;-80
2023/11/24 09:38:58;;;;;;;10.88;8.02;;;;;;;9.80;100.00;92021.34;5070718;28;20054;-78
2023/11/24 09:41:26;;;;;;;11.98;8.93;;;;;;;9.92;100.00;92033.31;5073290;28;20049;-78
2023/11/24 09:43:52;;;;;;;14.00;10.43;;;;;;;9.91;100.00;92029.19;5069494;28;20075;-77
2023/11/24 09:46:21;;;;;;;12.88;9.63;;;;;;;9.98;100.00;92024.66;5069427;28;20056;-78
2023/11/24 09:48:50;;;;;;;15.18;8.88;;;;;;;10.03;100.00;92020.41;5069026;28;20573;-78
2023/11/24 09:51:18;;;;;;;11.88;8.05;;;;;;;10.07;100.00;92013.00;5069052;28;20041;-79
2023/11/24 09:53:45;;;;;;;14.80;9.10;;;;;;;10.06;100.00;92006.31;5069766;28;20506;-79
2023/11/24 09:56:12;;;;;;;12.13;8.43;;;;;;;9.94;100.00;91978.19;5075778;28;20052;-78
2023/11/24 09:58:42;;;;;;;13.15;8.27;;;;;;;10.08;100.00;92001.72;5070275;28;20051;-79
2023/11/24 10:01:16;;;;;;;13.30;9.35;;;;;;;9.96;100.00;91981.28;5072093;28;20443;-78
2023/11/24 10:03:47;;;;;;;12.35;8.30;;;;;;;10.02;100.00;91964.19;5068983;28;20056;-79
2023/11/24 10:06:15;;;;;;;10.88;7.32;;;;;;;10.14;100.00;91982.06;5066907;28;20055;-78
2023/11/24 10:08:42;;;;;;;15.77;8.77;;;;;;;10.20;100.00;91982.88;5080069;28;20052;-78
2023/11/24 10:11:12;;;;;;;13.25;8.80;;;;;;;10.16;100.00;91987.72;5086120;28;20051;-78
2023/11/24 10:13:41;;;;;;;13.18;7.80;;;;;;;10.15;100.00;91981.03;5076440;28;20510;-80
2023/11/24 10:16:10;;;;;;;16.98;9.05;;;;;;;10.16;100.00;91980.03;5070600;28;20547;-78
2023/11/24 10:18:38;;;;;;;13.10;9.45;;;;;;;10.22;100.00;91973.16;5069989;28;20418;-78
2023/11/24 10:21:06;;;;;;;15.00;8.50;;;;;;;10.22;100.00;91975.72;5069902;28;20052;-78
2023/11/24 10:23:34;;;;;;;12.43;8.13;;;;;;;10.25;100.00;91965.78;5067099;28;20675;-78
2023/11/24 10:26:02;;;;;;;11.82;7.22;;;;;;;10.31;100.00;91961.47;5067300;28;20048;-78
2023/11/24 10:28:29;;;;;;;11.23;7.72;;;;;;;10.37;100.00;91960.50;5067775;28;20149;-78
2023/11/24 10:30:58;;;;;;;11.52;7.75;;;;;;;10.41;100.00;91956.47;5084432;28;20055;-78
2023/11/24 10:33:26;;;;;;;14.18;8.38;;;;;;;10.43;100.00;91951.88;5067324;28;20137;-78
2023/11/24 10:35:54;;;;;;;16.08;8.55;;;;;;;10.51;100.00;91950.69;5067226;28;20083;-78
2023/11/24 10:38:21;;;;;;;14.52;10.50;;;;;;;10.51;100.00;91940.41;5067816;28;20448;-77
2023/11/24 10:40:51;;;;;;;17.38;11.68;;;;;;;10.54;100.00;91947.66;5070984;28;20051;-77
2023/11/24 10:43:20;;;;;;;22.27;12.43;;;;;;;10.56;100.00;91937.91;5070203;28;20052;-77
2023/11/24 10:45:50;;;;;;;28.80;19.27;;;;;;;10.64;100.00;91926.44;5069226;28;20048;-77
2023/11/24 10:48:21;;;;;;;24.10;14.93;;;;;;;10.51;100.00;91903.72;5070232;28;20084;-77
2023/11/24 10:50:57;;;;;;;20.75;13.35;;;;;;;10.67;100.00;91925.97;5069581;28;20152;-77
2023/11/24 10:53:26;;;;;;;;;;;;;;;10.66;100.00;91916.69;5068498;28;20044;-77
2023/11/24 10:55:55;;;;;;;13.73;9.20;;;;;;;10.64;100.00;91911.03;5069792;28;19931;-77
2023/11/24 10:58:22;;;;;;;13.20;7.00;;;;;;;10.71;100.00;91897.22;5066754;28;20052;-77
2023/11/24 11:00:50;;;;;;;15.68;9.77;;;;;;;10.73;100.00;91895.19;5067679;28;20048;-77
2023/11/24 11:03:17;;;;;;;12.68;8.10;;;;;;;10.76;100.00;91892.13;5070221;28;20048;-78
2023/11/24 11:06:03;;;;;;;9.55;6.53;;;;;;;10.74;100.00;91891.59;5070279;28;20040;-78
2023/11/24 11:08:35;;;;;;;9.90;6.47;;;;;;;10.74;100.00;91879.50;5067159;28;20158;-78
2023/11/24 11:11:49;;;;;;;10.60;7.47;;;;;;;10.79;100.00;91876.25;5073117;28;20080;-78
2023/11/24 11:14:21;;;;;;;11.95;7.43;;;;;;;10.78;100.00;91865.19;5020984;28;20049;-78
2023/11/24 11:16:51;;;;;;;10.52;7.88;;;;;;;10.59;100.00;91820.34;5067703;28;20044;-78
2023/11/24 11:19:31;;;;;;;27.50;17.92;;;;;;;10.83;100.00;91852.38;5073579;28;20091;-78
2023/11/24 11:22:00;;;;;;;26.25;20.25;;;;;;;10.89;100.00;91839.56;5071396;28;20079;-78
2023/11/24 11:24:28;;;;;;;28.73;20.35;;;;;;;10.89;100.00;91845.50;5071938;28;20139;-78
2023/11/24 11:26:57;;;;;;;15.70;13.95;;;;;;;10.93;100.00;91845.78;5075162;28;20059;-78
2023/11/24 11:29:28;;;;;;;11.40;8.15;;;;;;;10.90;100.00;91838.56;5079693;28;20048;-78